sensor_id;sensor_type;location;lat;lon;timestamp;P1;durP1;ratioP1;P2;durP2;ratioP2
1701;SDS011;848;48.354;10.064;2023-02-28T00:00:22;6.75;;;2.40;;
1701;SDS011;848;48.354;10.064;2023-02-28T00:02:49;6.47;;;2.05;;
1701;SDS011;848;48.354;10.064;2023-02-28T00:05:17;5.43;;;1.90;;
1701;SDS011;848;48.354;10.064;2023-02-28T00:07:47;5.53;;;2.03;;
1701;SDS011;848;48.354;10.064;2023-02-28T00:10:16;7.55;;;1.90;;
1701;SDS011;848;48.354;10.064;2023-02-28T00:12:45;6.03;;;1.98;;
1701;SDS011;848;48.354;10.064;2023-02-28T00:15:13;5.50;;;2.05;;
1701;SDS011;848;48.354;10.064;2023-02-28T00:17:40;5.60;;;1.80;;
1701;SDS011;848;48.354;10.064;2023-02-28T00:20:07;9.38;;;3.45;;
1701;SDS011;848;48.354;10.064;2023-02-28T00:22:37;5.55;;;2.03;;
1701;SDS011;848;48.354;10.064;2023-02-28T00:25:07;7.05;;;2.60;;
1701;SDS011;848;48.354;10.064;2023-02-28T00:27:35;5.97;;;2.92;;
1701;SDS011;848;48.354;10.064;2023-02-28T00:30:04;6.25;;;2.35;;
1701;SDS011;848;48.354;10.064;2023-02-28T00:32:33;5.15;;;2.10;;
1701;SDS011;848;48.354;10.064;2023-02-28T00:35:01;6.07;;;1.95;;
1701;SDS011;848;48.354;10.064;2023-02-28T00:37:29;7.15;;;2.30;;
1701;SDS011;848;48.354;10.064;2023-02-28T00:39:56;6.78;;;2.80;;
1701;SDS011;848;48.354;10.064;2023-02-28T00:42:24;7.35;;;2.50;;
1701;SDS011;848;48.354;10.064;2023-02-28T00:44:51;5.20;;;1.20;;
1701;SDS011;848;48.354;10.064;2023-02-28T00:47:19;6.25;;;2.15;;
1701;SDS011;848;48.354;10.064;2023-02-28T00:49:46;7.50;;;2.75;;
1701;SDS011;848;48.354;10.064;2023-02-28T00:52:13;6.10;;;2.00;;
1701;SDS011;848;48.354;10.064;2023-02-28T00:54:40;7.85;;;2.60;;
1701;SDS011;848;48.354;10.064;2023-02-28T00:57:07;5.57;;;2.35;;
1701;SDS011;848;48.354;10.064;2023-02-28T00:59:35;5.80;;;1.88;;
1701;SDS011;848;48.354;10.064;2023-02-28T01:02:02;5.07;;;1.98;;
1701;SDS011;848;48.354;10.064;2023-02-28T01:04:29;6.25;;;2.50;;
1701;SDS011;848;48.354;10.064;2023-02-28T01:06:56;4.72;;;0.93;;
1701;SDS011;848;48.354;10.064;2023-02-28T01:09:24;5.38;;;2.45;;
1701;SDS011;848;48.354;10.064;2023-02-28T01:11:51;4.97;;;1.55;;
1701;SDS011;848;48.354;10.064;2023-02-28T01:14:17;8.05;;;2.30;;
1701;SDS011;848;48.354;10.064;2023-02-28T01:16:46;5.63;;;1.70;;
1701;SDS011;848;48.354;10.064;2023-02-28T01:19:13;6.47;;;2.15;;
1701;SDS011;848;48.354;10.064;2023-02-28T01:21:40;5.82;;;2.38;;
1701;SDS011;848;48.354;10.064;2023-02-28T01:24:07;5.55;;;1.90;;
1701;SDS011;848;48.354;10.064;2023-02-28T01:26:34;6.68;;;1.70;;
1701;SDS011;848;48.354;10.064;2023-02-28T01:29:01;6.15;;;2.20;;
1701;SDS011;848;48.354;10.064;2023-02-28T01:31:27;6.15;;;1.95;;
1701;SDS011;848;48.354;10.064;2023-02-28T01:33:56;6.15;;;1.90;;
1701;SDS011;848;48.354;10.064;2023-02-28T01:36:23;12.15;;;1.60;;
1701;SDS011;848;48.354;10.064;2023-02-28T01:38:50;6.47;;;2.47;;
1701;SDS011;848;48.354;10.064;2023-02-28T01:41:18;6.43;;;2.42;;
1701;SDS011;848;48.354;10.064;2023-02-28T01:46:50;5.65;;;2.15;;
1701;SDS011;848;48.354;10.064;2023-02-28T01:49:18;8.40;;;2.10;;
1701;SDS011;848;48.354;10.064;2023-02-28T01:51:47;6.05;;;1.45;;
1701;SDS011;848;48.354;10.064;2023-02-28T01:54:17;6.28;;;1.95;;
1701;SDS011;848;48.354;10.064;2023-02-28T01:56:46;5.53;;;2.42;;
1701;SDS011;848;48.354;10.064;2023-02-28T01:59:18;5.90;;;2.35;;
1701;SDS011;848;48.354;10.064;2023-02-28T02:01:49;6.03;;;2.60;;
1701;SDS011;848;48.354;10.064;2023-02-28T02:04:16;5.72;;;1.92;;
1701;SDS011;848;48.354;10.064;2023-02-28T02:06:45;6.55;;;1.98;;
1701;SDS011;848;48.354;10.064;2023-02-28T02:09:14;6.03;;;2.25;;
1701;SDS011;848;48.354;10.064;2023-02-28T02:11:41;7.55;;;1.95;;
1701;SDS011;848;48.354;10.064;2023-02-28T02:14:18;6.80;;;1.75;;
1701;SDS011;848;48.354;10.064;2023-02-28T02:17:04;7.95;;;2.67;;
1701;SDS011;848;48.354;10.064;2023-02-28T02:19:53;7.90;;;2.53;;
1701;SDS011;848;48.354;10.064;2023-02-28T02:22:54;5.45;;;2.13;;
1701;SDS011;848;48.354;10.064;2023-02-28T02:25:36;6.85;;;1.90;;
1701;SDS011;848;48.354;10.064;2023-02-28T02:28:18;5.65;;;2.05;;
1701;SDS011;848;48.354;10.064;2023-02-28T02:31:18;5.10;;;1.73;;
1701;SDS011;848;48.354;10.064;2023-02-28T02:36:53;8.65;;;2.50;;
1701;SDS011;848;48.354;10.064;2023-02-28T02:39:35;10.02;;;3.00;;
1701;SDS011;848;48.354;10.064;2023-02-28T02:42:11;6.18;;;2.20;;
1701;SDS011;848;48.354;10.064;2023-02-28T02:44:45;6.97;;;2.60;;
1701;SDS011;848;48.354;10.064;2023-02-28T02:47:15;5.68;;;2.15;;
1701;SDS011;848;48.354;10.064;2023-02-28T02:49:47;6.10;;;2.40;;
1701;SDS011;848;48.354;10.064;2023-02-28T02:52:17;7.03;;;1.75;;
1701;SDS011;848;48.354;10.064;2023-02-28T02:54:47;6.68;;;2.05;;
1701;SDS011;848;48.354;10.064;2023-02-28T02:57:20;6.18;;;2.50;;
1701;SDS011;848;48.354;10.064;2023-02-28T02:59:50;7.18;;;2.28;;
1701;SDS011;848;48.354;10.064;2023-02-28T03:02:19;6.50;;;2.58;;
1701;SDS011;848;48.354;10.064;2023-02-28T03:04:50;5.28;;;1.45;;
1701;SDS011;848;48.354;10.064;2023-02-28T03:07:19;6.22;;;2.40;;
1701;SDS011;848;48.354;10.064;2023-02-28T03:09:50;6.97;;;2.25;;
1701;SDS011;848;48.354;10.064;2023-02-28T03:12:18;8.98;;;2.80;;
1701;SDS011;848;48.354;10.064;2023-02-28T03:14:50;7.80;;;2.53;;
1701;SDS011;848;48.354;10.064;2023-02-28T03:17:39;6.05;;;2.28;;
1701;SDS011;848;48.354;10.064;2023-02-28T03:20:17;4.00;;;1.10;;
1701;SDS011;848;48.354;10.064;2023-02-28T03:22:55;6.22;;;2.75;;
1701;SDS011;848;48.354;10.064;2023-02-28T03:25:33;6.65;;;3.08;;
1701;SDS011;848;48.354;10.064;2023-02-28T03:28:08;5.68;;;2.13;;
1701;SDS011;848;48.354;10.064;2023-02-28T03:30:44;7.10;;;2.28;;
1701;SDS011;848;48.354;10.064;2023-02-28T03:33:17;8.15;;;2.83;;
1701;SDS011;848;48.354;10.064;2023-02-28T03:35:50;9.13;;;3.00;;
1701;SDS011;848;48.354;10.064;2023-02-28T03:38:20;7.20;;;2.70;;
1701;SDS011;848;48.354;10.064;2023-02-28T03:40:54;6.55;;;2.67;;
1701;SDS011;848;48.354;10.064;2023-02-28T03:43:26;6.72;;;2.28;;
1701;SDS011;848;48.354;10.064;2023-02-28T03:45:58;6.13;;;2.40;;
1701;SDS011;848;48.354;10.064;2023-02-28T03:48:30;8.45;;;3.13;;
1701;SDS011;848;48.354;10.064;2023-02-28T03:51:02;6.68;;;2.72;;
1701;SDS011;848;48.354;10.064;2023-02-28T03:53:33;6.10;;;3.05;;
1701;SDS011;848;48.354;10.064;2023-02-28T03:56:03;6.75;;;2.75;;
1701;SDS011;848;48.354;10.064;2023-02-28T03:58:37;7.90;;;3.20;;
1701;SDS011;848;48.354;10.064;2023-02-28T04:01:07;7.68;;;2.70;;
1701;SDS011;848;48.354;10.064;2023-02-28T04:03:38;6.35;;;3.05;;
1701;SDS011;848;48.354;10.064;2023-02-28T04:06:07;7.00;;;2.90;;
1701;SDS011;848;48.354;10.064;2023-02-28T04:08:40;5.50;;;2.50;;
1701;SDS011;848;48.354;10.064;2023-02-28T04:11:08;7.95;;;2.83;;
1701;SDS011;848;48.354;10.064;2023-02-28T04:13:44;7.38;;;2.60;;
1701;SDS011;848;48.354;10.064;2023-02-28T04:16:11;6.43;;;2.88;;
1701;SDS011;848;48.354;10.064;2023-02-28T04:18:42;6.82;;;2.63;;
1701;SDS011;848;48.354;10.064;2023-02-28T04:21:10;7.40;;;2.95;;
1701;SDS011;848;48.354;10.064;2023-02-28T04:23:37;10.93;;;3.70;;
1701;SDS011;848;48.354;10.064;2023-02-28T04:26:04;6.28;;;3.03;;
1701;SDS011;848;48.354;10.064;2023-02-28T04:28:32;6.38;;;2.70;;
1701;SDS011;848;48.354;10.064;2023-02-28T04:31:00;6.90;;;3.20;;
1701;SDS011;848;48.354;10.064;2023-02-28T04:33:29;7.38;;;3.22;;
1701;SDS011;848;48.354;10.064;2023-02-28T04:35:58;8.80;;;3.75;;
1701;SDS011;848;48.354;10.064;2023-02-28T04:38:28;6.90;;;3.03;;
1701;SDS011;848;48.354;10.064;2023-02-28T04:40:59;7.65;;;3.50;;
1701;SDS011;848;48.354;10.064;2023-02-28T04:43:26;10.30;;;3.72;;
1701;SDS011;848;48.354;10.064;2023-02-28T04:45:53;9.73;;;3.70;;
1701;SDS011;848;48.354;10.064;2023-02-28T04:48:21;6.82;;;3.28;;
1701;SDS011;848;48.354;10.064;2023-02-28T04:50:49;10.00;;;4.70;;
1701;SDS011;848;48.354;10.064;2023-02-28T04:53:16;8.15;;;3.42;;
1701;SDS011;848;48.354;10.064;2023-02-28T04:55:45;9.60;;;4.00;;
1701;SDS011;848;48.354;10.064;2023-02-28T04:58:12;8.43;;;3.17;;
1701;SDS011;848;48.354;10.064;2023-02-28T05:00:39;9.40;;;4.13;;
1701;SDS011;848;48.354;10.064;2023-02-28T05:03:06;4.57;;;1.33;;
1701;SDS011;848;48.354;10.064;2023-02-28T05:05:33;8.40;;;4.13;;
1701;SDS011;848;48.354;10.064;2023-02-28T05:07:59;8.50;;;3.60;;
1701;SDS011;848;48.354;10.064;2023-02-28T05:10:26;8.43;;;3.53;;
1701;SDS011;848;48.354;10.064;2023-02-28T05:12:55;9.85;;;3.90;;
1701;SDS011;848;48.354;10.064;2023-02-28T05:15:22;9.25;;;4.22;;
1701;SDS011;848;48.354;10.064;2023-02-28T05:17:48;7.22;;;3.75;;
1701;SDS011;848;48.354;10.064;2023-02-28T05:20:16;7.43;;;3.72;;
1701;SDS011;848;48.354;10.064;2023-02-28T05:22:43;10.98;;;3.63;;
1701;SDS011;848;48.354;10.064;2023-02-28T05:25:13;12.10;;;4.15;;
1701;SDS011;848;48.354;10.064;2023-02-28T05:27:43;8.60;;;4.28;;
1701;SDS011;848;48.354;10.064;2023-02-28T05:30:11;5.60;;;2.28;;
1701;SDS011;848;48.354;10.064;2023-02-28T05:32:39;8.82;;;4.03;;
1701;SDS011;848;48.354;10.064;2023-02-28T05:35:08;9.10;;;3.97;;
1701;SDS011;848;48.354;10.064;2023-02-28T05:37:36;10.10;;;4.75;;
1701;SDS011;848;48.354;10.064;2023-02-28T05:40:04;10.43;;;4.78;;
1701;SDS011;848;48.354;10.064;2023-02-28T05:42:35;7.20;;;3.55;;
1701;SDS011;848;48.354;10.064;2023-02-28T05:45:02;9.88;;;3.25;;
1701;SDS011;848;48.354;10.064;2023-02-28T05:47:30;9.77;;;3.65;;
1701;SDS011;848;48.354;10.064;2023-02-28T05:49:57;8.73;;;4.55;;
1701;SDS011;848;48.354;10.064;2023-02-28T05:52:25;11.45;;;3.25;;
1701;SDS011;848;48.354;10.064;2023-02-28T05:54:52;9.30;;;3.70;;
1701;SDS011;848;48.354;10.064;2023-02-28T05:57:19;9.40;;;4.40;;
1701;SDS011;848;48.354;10.064;2023-02-28T05:59:45;8.45;;;4.03;;
1701;SDS011;848;48.354;10.064;2023-02-28T06:02:13;8.90;;;4.60;;
1701;SDS011;848;48.354;10.064;2023-02-28T06:04:43;8.85;;;3.95;;
1701;SDS011;848;48.354;10.064;2023-02-28T06:07:10;8.20;;;2.63;;
1701;SDS011;848;48.354;10.064;2023-02-28T06:09:37;7.72;;;4.15;;
1701;SDS011;848;48.354;10.064;2023-02-28T06:12:05;10.20;;;4.10;;
1701;SDS011;848;48.354;10.064;2023-02-28T06:14:34;8.73;;;3.78;;
1701;SDS011;848;48.354;10.064;2023-02-28T06:17:02;7.30;;;3.47;;
1701;SDS011;848;48.354;10.064;2023-02-28T06:19:30;11.88;;;5.50;;
1701;SDS011;848;48.354;10.064;2023-02-28T06:21:59;7.38;;;3.58;;
1701;SDS011;848;48.354;10.064;2023-02-28T06:24:26;10.65;;;4.80;;
1701;SDS011;848;48.354;10.064;2023-02-28T06:26:54;10.13;;;5.05;;
1701;SDS011;848;48.354;10.064;2023-02-28T06:29:21;9.48;;;3.85;;
1701;SDS011;848;48.354;10.064;2023-02-28T06:31:48;10.93;;;4.35;;
1701;SDS011;848;48.354;10.064;2023-02-28T06:34:15;12.23;;;5.32;;
1701;SDS011;848;48.354;10.064;2023-02-28T06:36:42;5.78;;;2.58;;
1701;SDS011;848;48.354;10.064;2023-02-28T06:39:11;7.75;;;4.20;;
1701;SDS011;848;48.354;10.064;2023-02-28T06:41:38;8.50;;;4.10;;
1701;SDS011;848;48.354;10.064;2023-02-28T06:44:05;10.25;;;4.65;;
1701;SDS011;848;48.354;10.064;2023-02-28T06:46:39;7.60;;;2.47;;
1701;SDS011;848;48.354;10.064;2023-02-28T06:49:07;8.68;;;3.10;;
1701;SDS011;848;48.354;10.064;2023-02-28T06:51:34;9.15;;;4.13;;
1701;SDS011;848;48.354;10.064;2023-02-28T06:54:02;12.32;;;2.25;;
1701;SDS011;848;48.354;10.064;2023-02-28T06:56:31;13.55;;;6.20;;
1701;SDS011;848;48.354;10.064;2023-02-28T06:58:58;11.88;;;5.68;;
1701;SDS011;848;48.354;10.064;2023-02-28T07:01:25;17.33;;;4.05;;
1701;SDS011;848;48.354;10.064;2023-02-28T07:03:53;11.88;;;5.05;;
1701;SDS011;848;48.354;10.064;2023-02-28T07:06:20;7.45;;;3.67;;
1701;SDS011;848;48.354;10.064;2023-02-28T07:08:48;6.10;;;2.97;;
1701;SDS011;848;48.354;10.064;2023-02-28T07:11:15;13.95;;;6.18;;
1701;SDS011;848;48.354;10.064;2023-02-28T07:13:44;9.32;;;3.90;;
1701;SDS011;848;48.354;10.064;2023-02-28T07:16:12;11.23;;;5.60;;
1701;SDS011;848;48.354;10.064;2023-02-28T07:18:39;6.97;;;2.88;;
1701;SDS011;848;48.354;10.064;2023-02-28T07:21:07;10.13;;;4.00;;
1701;SDS011;848;48.354;10.064;2023-02-28T07:23:35;12.68;;;5.43;;
1701;SDS011;848;48.354;10.064;2023-02-28T07:26:07;6.65;;;2.42;;
1701;SDS011;848;48.354;10.064;2023-02-28T07:28:40;11.88;;;5.88;;
1701;SDS011;848;48.354;10.064;2023-02-28T07:31:09;9.43;;;4.50;;
1701;SDS011;848;48.354;10.064;2023-02-28T07:33:37;11.95;;;5.03;;
1701;SDS011;848;48.354;10.064;2023-02-28T07:36:05;15.38;;;5.95;;
1701;SDS011;848;48.354;10.064;2023-02-28T07:38:33;6.03;;;2.50;;
1701;SDS011;848;48.354;10.064;2023-02-28T07:41:00;11.85;;;4.60;;
1701;SDS011;848;48.354;10.064;2023-02-28T07:43:29;15.48;;;5.50;;
1701;SDS011;848;48.354;10.064;2023-02-28T07:46:00;16.88;;;6.93;;
1701;SDS011;848;48.354;10.064;2023-02-28T07:48:29;12.20;;;6.32;;
1701;SDS011;848;48.354;10.064;2023-02-28T07:50:56;11.65;;;5.80;;
1701;SDS011;848;48.354;10.064;2023-02-28T07:53:24;8.48;;;3.70;;
1701;SDS011;848;48.354;10.064;2023-02-28T07:55:54;9.80;;;5.05;;
1701;SDS011;848;48.354;10.064;2023-02-28T07:58:21;10.20;;;5.00;;
1701;SDS011;848;48.354;10.064;2023-02-28T08:00:48;5.82;;;1.73;;
1701;SDS011;848;48.354;10.064;2023-02-28T08:03:15;10.50;;;5.40;;
1701;SDS011;848;48.354;10.064;2023-02-28T08:05:44;11.63;;;5.80;;
1701;SDS011;848;48.354;10.064;2023-02-28T08:08:11;11.15;;;5.43;;
1701;SDS011;848;48.354;10.064;2023-02-28T08:10:38;8.25;;;4.40;;
1701;SDS011;848;48.354;10.064;2023-02-28T08:13:05;15.05;;;6.32;;
1701;SDS011;848;48.354;10.064;2023-02-28T08:15:32;10.40;;;5.13;;
1701;SDS011;848;48.354;10.064;2023-02-28T08:17:58;11.30;;;5.85;;
1701;SDS011;848;48.354;10.064;2023-02-28T08:20:26;9.77;;;5.60;;
1701;SDS011;848;48.354;10.064;2023-02-28T08:22:54;10.38;;;5.43;;
1701;SDS011;848;48.354;10.064;2023-02-28T08:25:21;11.73;;;6.75;;
1701;SDS011;848;48.354;10.064;2023-02-28T08:27:50;10.40;;;5.30;;
1701;SDS011;848;48.354;10.064;2023-02-28T08:30:18;13.38;;;6.32;;
1701;SDS011;848;48.354;10.064;2023-02-28T08:32:44;12.07;;;4.60;;
1701;SDS011;848;48.354;10.064;2023-02-28T08:35:11;12.27;;;6.45;;
1701;SDS011;848;48.354;10.064;2023-02-28T08:37:38;13.43;;;6.72;;
1701;SDS011;848;48.354;10.064;2023-02-28T08:40:07;15.10;;;7.05;;
1701;SDS011;848;48.354;10.064;2023-02-28T08:42:35;13.40;;;6.45;;
1701;SDS011;848;48.354;10.064;2023-02-28T08:45:03;12.00;;;6.30;;
1701;SDS011;848;48.354;10.064;2023-02-28T08:47:30;9.65;;;3.22;;
1701;SDS011;848;48.354;10.064;2023-02-28T08:49:57;9.13;;;3.85;;
1701;SDS011;848;48.354;10.064;2023-02-28T08:52:24;10.45;;;5.88;;
1701;SDS011;848;48.354;10.064;2023-02-28T08:54:51;12.45;;;5.95;;
1701;SDS011;848;48.354;10.064;2023-02-28T08:57:19;7.13;;;3.15;;
1701;SDS011;848;48.354;10.064;2023-02-28T08:59:46;8.10;;;4.20;;
1701;SDS011;848;48.354;10.064;2023-02-28T09:02:13;5.72;;;2.70;;
1701;SDS011;848;48.354;10.064;2023-02-28T09:04:40;11.77;;;6.72;;
1701;SDS011;848;48.354;10.064;2023-02-28T09:07:10;13.68;;;6.40;;
1701;SDS011;848;48.354;10.064;2023-02-28T09:09:37;5.35;;;3.15;;
1701;SDS011;848;48.354;10.064;2023-02-28T09:12:20;12.25;;;6.75;;
1701;SDS011;848;48.354;10.064;2023-02-28T09:14:47;27.38;;;7.35;;
1701;SDS011;848;48.354;10.064;2023-02-28T09:17:14;9.93;;;5.43;;
1701;SDS011;848;48.354;10.064;2023-02-28T09:19:41;14.75;;;6.88;;
1701;SDS011;848;48.354;10.064;2023-02-28T09:22:08;14.00;;;6.95;;
1701;SDS011;848;48.354;10.064;2023-02-28T09:24:35;9.77;;;4.80;;
1701;SDS011;848;48.354;10.064;2023-02-28T09:27:03;14.18;;;7.22;;
1701;SDS011;848;48.354;10.064;2023-02-28T09:29:32;7.45;;;3.03;;
1701;SDS011;848;48.354;10.064;2023-02-28T09:32:00;10.25;;;5.05;;
1701;SDS011;848;48.354;10.064;2023-02-28T09:34:27;6.60;;;2.97;;
1701;SDS011;848;48.354;10.064;2023-02-28T09:36:58;11.27;;;5.53;;
1701;SDS011;848;48.354;10.064;2023-02-28T09:39:25;10.55;;;5.60;;
1701;SDS011;848;48.354;10.064;2023-02-28T09:41:53;7.53;;;4.45;;
1701;SDS011;848;48.354;10.064;2023-02-28T09:44:23;11.90;;;5.68;;
1701;SDS011;848;48.354;10.064;2023-02-28T09:46:57;12.48;;;5.38;;
1701;SDS011;848;48.354;10.064;2023-02-28T09:49:29;7.03;;;3.20;;
1701;SDS011;848;48.354;10.064;2023-02-28T09:52:05;13.20;;;6.93;;
1701;SDS011;848;48.354;10.064;2023-02-28T09:54:36;12.20;;;6.38;;
1701;SDS011;848;48.354;10.064;2023-02-28T09:57:05;11.35;;;5.78;;
1701;SDS011;848;48.354;10.064;2023-02-28T09:59:41;13.82;;;5.88;;
1701;SDS011;848;48.354;10.064;2023-02-28T10:02:24;12.52;;;6.55;;
1701;SDS011;848;48.354;10.064;2023-02-28T10:05:06;9.45;;;3.85;;
1701;SDS011;848;48.354;10.064;2023-02-28T10:07:47;7.43;;;2.50;;
1701;SDS011;848;48.354;10.064;2023-02-28T10:10:23;8.63;;;4.05;;
1701;SDS011;848;48.354;10.064;2023-02-28T10:12:54;10.35;;;4.65;;
1701;SDS011;848;48.354;10.064;2023-02-28T10:15:24;9.82;;;4.05;;
1701;SDS011;848;48.354;10.064;2023-02-28T10:17:56;7.28;;;3.00;;
1701;SDS011;848;48.354;10.064;2023-02-28T10:20:26;13.43;;;5.20;;
1701;SDS011;848;48.354;10.064;2023-02-28T10:23:03;17.30;;;7.40;;
1701;SDS011;848;48.354;10.064;2023-02-28T10:25:37;10.07;;;5.60;;
1701;SDS011;848;48.354;10.064;2023-02-28T10:28:09;9.07;;;4.82;;
1701;SDS011;848;48.354;10.064;2023-02-28T10:30:39;7.55;;;2.92;;
1701;SDS011;848;48.354;10.064;2023-02-28T10:33:13;11.60;;;5.78;;
1701;SDS011;848;48.354;10.064;2023-02-28T10:35:45;7.05;;;3.63;;
1701;SDS011;848;48.354;10.064;2023-02-28T10:38:15;11.38;;;3.88;;
1701;SDS011;848;48.354;10.064;2023-02-28T10:40:45;8.80;;;3.33;;
1701;SDS011;848;48.354;10.064;2023-02-28T10:43:19;5.72;;;1.88;;
1701;SDS011;848;48.354;10.064;2023-02-28T10:45:53;8.40;;;4.47;;
1701;SDS011;848;48.354;10.064;2023-02-28T10:48:38;16.58;;;6.40;;
1701;SDS011;848;48.354;10.064;2023-02-28T10:51:08;15.75;;;6.18;;
1701;SDS011;848;48.354;10.064;2023-02-28T10:53:44;8.50;;;4.45;;
1701;SDS011;848;48.354;10.064;2023-02-28T10:56:18;15.23;;;5.32;;
1701;SDS011;848;48.354;10.064;2023-02-28T10:58:52;6.55;;;2.78;;
1701;SDS011;848;48.354;10.064;2023-02-28T11:01:21;11.43;;;5.50;;
1701;SDS011;848;48.354;10.064;2023-02-28T11:03:51;13.50;;;6.88;;
1701;SDS011;848;48.354;10.064;2023-02-28T11:06:19;10.75;;;5.93;;
1701;SDS011;848;48.354;10.064;2023-02-28T11:08:49;13.98;;;6.10;;
1701;SDS011;848;48.354;10.064;2023-02-28T11:11:19;10.52;;;5.30;;
1701;SDS011;848;48.354;10.064;2023-02-28T11:13:48;11.45;;;5.65;;
1701;SDS011;848;48.354;10.064;2023-02-28T11:16:18;13.07;;;6.95;;
1701;SDS011;848;48.354;10.064;2023-02-28T11:18:47;13.10;;;6.95;;
1701;SDS011;848;48.354;10.064;2023-02-28T11:21:18;10.60;;;6.07;;
1701;SDS011;848;48.354;10.064;2023-02-28T11:23:49;12.65;;;5.65;;
1701;SDS011;848;48.354;10.064;2023-02-28T11:26:38;12.70;;;5.70;;
1701;SDS011;848;48.354;10.064;2023-02-28T11:29:11;10.80;;;5.43;;
1701;SDS011;848;48.354;10.064;2023-02-28T11:31:45;14.30;;;5.78;;
1701;SDS011;848;48.354;10.064;2023-02-28T11:34:31;14.57;;;7.32;;
1701;SDS011;848;48.354;10.064;2023-02-28T11:36:59;10.15;;;5.32;;
1701;SDS011;848;48.354;10.064;2023-02-28T11:39:30;7.80;;;3.83;;
1701;SDS011;848;48.354;10.064;2023-02-28T11:42:03;13.70;;;6.57;;
1701;SDS011;848;48.354;10.064;2023-02-28T11:44:57;11.05;;;3.05;;
1701;SDS011;848;48.354;10.064;2023-02-28T11:47:32;13.50;;;7.63;;
1701;SDS011;848;48.354;10.064;2023-02-28T11:50:12;14.93;;;6.90;;
1701;SDS011;848;48.354;10.064;2023-02-28T11:52:55;8.57;;;4.45;;
1701;SDS011;848;48.354;10.064;2023-02-28T11:55:29;7.82;;;3.05;;
1701;SDS011;848;48.354;10.064;2023-02-28T12:00:54;14.18;;;6.95;;
1701;SDS011;848;48.354;10.064;2023-02-28T12:03:32;13.15;;;6.20;;
1701;SDS011;848;48.354;10.064;2023-02-28T12:06:10;7.03;;;3.45;;
1701;SDS011;848;48.354;10.064;2023-02-28T12:08:49;11.10;;;6.20;;
1701;SDS011;848;48.354;10.064;2023-02-28T12:11:39;15.35;;;7.43;;
1701;SDS011;848;48.354;10.064;2023-02-28T12:17:20;9.45;;;3.38;;
1701;SDS011;848;48.354;10.064;2023-02-28T12:19:59;13.32;;;7.05;;
1701;SDS011;848;48.354;10.064;2023-02-28T12:22:35;14.68;;;7.40;;
1701;SDS011;848;48.354;10.064;2023-02-28T12:28:14;8.00;;;4.00;;
1701;SDS011;848;48.354;10.064;2023-02-28T12:30:49;10.25;;;2.35;;
1701;SDS011;848;48.354;10.064;2023-02-28T12:33:20;20.00;;;7.93;;
1701;SDS011;848;48.354;10.064;2023-02-28T12:35:51;8.80;;;4.90;;
1701;SDS011;848;48.354;10.064;2023-02-28T12:38:22;12.93;;;6.70;;
1701;SDS011;848;48.354;10.064;2023-02-28T12:40:52;13.90;;;6.30;;
1701;SDS011;848;48.354;10.064;2023-02-28T12:43:25;11.88;;;6.53;;
1701;SDS011;848;48.354;10.064;2023-02-28T12:45:58;12.95;;;7.60;;
1701;SDS011;848;48.354;10.064;2023-02-28T12:48:30;8.15;;;4.40;;
1701;SDS011;848;48.354;10.064;2023-02-28T12:51:04;12.13;;;4.63;;
1701;SDS011;848;48.354;10.064;2023-02-28T12:53:35;15.40;;;7.07;;
1701;SDS011;848;48.354;10.064;2023-02-28T12:56:16;7.63;;;3.40;;
1701;SDS011;848;48.354;10.064;2023-02-28T12:58:51;8.93;;;3.17;;
1701;SDS011;848;48.354;10.064;2023-02-28T13:01:35;10.13;;;6.45;;
1701;SDS011;848;48.354;10.064;2023-02-28T13:04:19;14.77;;;7.30;;
1701;SDS011;848;48.354;10.064;2023-02-28T13:07:05;13.77;;;7.88;;
1701;SDS011;848;48.354;10.064;2023-02-28T13:09:51;14.35;;;8.88;;
1701;SDS011;848;48.354;10.064;2023-02-28T13:12:19;8.27;;;4.40;;
1701;SDS011;848;48.354;10.064;2023-02-28T13:14:49;11.63;;;5.30;;
1701;SDS011;848;48.354;10.064;2023-02-28T13:17:17;10.27;;;5.18;;
1701;SDS011;848;48.354;10.064;2023-02-28T13:19:55;11.27;;;4.78;;
1701;SDS011;848;48.354;10.064;2023-02-28T13:22:37;13.15;;;5.35;;
1701;SDS011;848;48.354;10.064;2023-02-28T13:28:08;8.73;;;3.45;;
1701;SDS011;848;48.354;10.064;2023-02-28T13:33:29;9.18;;;3.42;;
1701;SDS011;848;48.354;10.064;2023-02-28T13:38:54;15.38;;;7.60;;
1701;SDS011;848;48.354;10.064;2023-02-28T13:41:43;9.07;;;5.28;;
1701;SDS011;848;48.354;10.064;2023-02-28T13:44:12;8.13;;;4.93;;
1701;SDS011;848;48.354;10.064;2023-02-28T13:49:50;7.07;;;3.72;;
1701;SDS011;848;48.354;10.064;2023-02-28T13:52:18;12.13;;;4.75;;
1701;SDS011;848;48.354;10.064;2023-02-28T13:54:56;8.35;;;2.85;;
1701;SDS011;848;48.354;10.064;2023-02-28T13:57:41;13.20;;;6.55;;
1701;SDS011;848;48.354;10.064;2023-02-28T14:00:17;11.65;;;6.60;;
1701;SDS011;848;48.354;10.064;2023-02-28T14:03:00;14.80;;;5.78;;
1701;SDS011;848;48.354;10.064;2023-02-28T14:05:37;6.80;;;3.03;;
1701;SDS011;848;48.354;10.064;2023-02-28T14:08:05;12.63;;;6.97;;
1701;SDS011;848;48.354;10.064;2023-02-28T14:10:41;7.97;;;4.68;;
1701;SDS011;848;48.354;10.064;2023-02-28T14:13:17;15.23;;;6.70;;
1701;SDS011;848;48.354;10.064;2023-02-28T14:16:09;8.50;;;3.05;;
1701;SDS011;848;48.354;10.064;2023-02-28T14:18:40;9.02;;;4.72;;
1701;SDS011;848;48.354;10.064;2023-02-28T14:21:16;10.77;;;6.72;;
1701;SDS011;848;48.354;10.064;2023-02-28T14:27:00;11.00;;;6.13;;
1701;SDS011;848;48.354;10.064;2023-02-28T14:29:44;12.00;;;6.38;;
1701;SDS011;848;48.354;10.064;2023-02-28T14:32:33;12.05;;;6.57;;
1701;SDS011;848;48.354;10.064;2023-02-28T14:35:13;12.70;;;6.65;;
1701;SDS011;848;48.354;10.064;2023-02-28T14:37:48;13.38;;;6.40;;
1701;SDS011;848;48.354;10.064;2023-02-28T14:40:16;13.35;;;7.00;;
1701;SDS011;848;48.354;10.064;2023-02-28T14:42:47;6.43;;;3.50;;
1701;SDS011;848;48.354;10.064;2023-02-28T14:45:21;17.60;;;7.25;;
1701;SDS011;848;48.354;10.064;2023-02-28T14:47:49;11.75;;;5.60;;
1701;SDS011;848;48.354;10.064;2023-02-28T14:50:19;11.75;;;6.47;;
1701;SDS011;848;48.354;10.064;2023-02-28T14:52:47;20.95;;;7.65;;
1701;SDS011;848;48.354;10.064;2023-02-28T14:55:18;11.93;;;6.35;;
1701;SDS011;848;48.354;10.064;2023-02-28T14:57:51;10.27;;;5.47;;
1701;SDS011;848;48.354;10.064;2023-02-28T15:00:22;12.85;;;6.10;;
1701;SDS011;848;48.354;10.064;2023-02-28T15:02:50;16.02;;;7.13;;
1701;SDS011;848;48.354;10.064;2023-02-28T15:05:21;11.07;;;5.80;;
1701;SDS011;848;48.354;10.064;2023-02-28T15:08:00;15.77;;;6.60;;
1701;SDS011;848;48.354;10.064;2023-02-28T15:10:29;15.13;;;6.75;;
1701;SDS011;848;48.354;10.064;2023-02-28T15:12:57;10.30;;;5.80;;
1701;SDS011;848;48.354;10.064;2023-02-28T15:15:26;14.45;;;7.15;;
1701;SDS011;848;48.354;10.064;2023-02-28T15:18:00;14.95;;;7.40;;
1701;SDS011;848;48.354;10.064;2023-02-28T15:20:32;15.23;;;6.93;;
1701;SDS011;848;48.354;10.064;2023-02-28T15:23:10;12.13;;;6.70;;
1701;SDS011;848;48.354;10.064;2023-02-28T15:25:38;14.45;;;7.10;;
1701;SDS011;848;48.354;10.064;2023-02-28T15:28:09;12.15;;;6.38;;
1701;SDS011;848;48.354;10.064;2023-02-28T15:30:50;12.00;;;6.72;;
1701;SDS011;848;48.354;10.064;2023-02-28T15:33:23;17.30;;;7.25;;
1701;SDS011;848;48.354;10.064;2023-02-28T15:36:02;17.30;;;6.38;;
1701;SDS011;848;48.354;10.064;2023-02-28T15:38:33;11.52;;;6.32;;
1701;SDS011;848;48.354;10.064;2023-02-28T15:41:02;11.88;;;6.38;;
1701;SDS011;848;48.354;10.064;2023-02-28T15:43:33;15.55;;;6.60;;
1701;SDS011;848;48.354;10.064;2023-02-28T15:46:01;12.15;;;6.32;;
1701;SDS011;848;48.354;10.064;2023-02-28T15:48:30;19.75;;;7.20;;
1701;SDS011;848;48.354;10.064;2023-02-28T15:51:02;11.38;;;6.13;;
1701;SDS011;848;48.354;10.064;2023-02-28T15:53:34;13.68;;;7.57;;
1701;SDS011;848;48.354;10.064;2023-02-28T15:56:05;10.77;;;6.43;;
1701;SDS011;848;48.354;10.064;2023-02-28T15:58:44;12.05;;;5.88;;
1701;SDS011;848;48.354;10.064;2023-02-28T16:01:18;13.05;;;7.07;;
1701;SDS011;848;48.354;10.064;2023-02-28T16:03:48;12.50;;;6.75;;